sensor_id;sensor_type;location;lat;lon;timestamp;P1;durP1;ratioP1;P2;durP2;ratioP2
56820;SDS011;42702;50.178;20.992;2022-08-11T00:01:13;6.40;;;3.60;;
56820;SDS011;42702;50.178;20.992;2022-08-11T00:04:06;9.60;;;3.60;;
56820;SDS011;42702;50.178;20.992;2022-08-11T00:06:34;6.60;;;3.70;;
56820;SDS011;42702;50.178;20.992;2022-08-11T00:09:05;8.70;;;3.40;;
56820;SDS011;42702;50.178;20.992;2022-08-11T00:11:38;8.40;;;3.60;;
56820;SDS011;42702;50.178;20.992;2022-08-11T00:14:17;6.90;;;3.60;;
56820;SDS011;42702;50.178;20.992;2022-08-11T00:16:55;7.20;;;4.30;;
56820;SDS011;42702;50.178;20.992;2022-08-11T00:19:39;5.40;;;3.30;;
56820;SDS011;42702;50.178;20.992;2022-08-11T00:22:31;5.40;;;3.70;;
56820;SDS011;42702;50.178;20.992;2022-08-11T00:25:09;5.70;;;3.40;;
56820;SDS011;42702;50.178;20.992;2022-08-11T00:27:39;6.80;;;3.80;;
56820;SDS011;42702;50.178;20.992;2022-08-11T00:30:09;9.90;;;3.70;;
56820;SDS011;42702;50.178;20.992;2022-08-11T00:32:40;17.30;;;6.40;;
56820;SDS011;42702;50.178;20.992;2022-08-11T00:35:12;12.60;;;6.90;;
56820;SDS011;42702;50.178;20.992;2022-08-11T00:40:52;13.20;;;6.60;;
56820;SDS011;42702;50.178;20.992;2022-08-11T00:49:51;11.60;;;5.20;;
56820;SDS011;42702;50.178;20.992;2022-08-11T01:41:25;5.50;;;3.30;;
56820;SDS011;42702;50.178;20.992;2022-08-11T01:58:41;6.00;;;3.70;;
56820;SDS011;42702;50.178;20.992;2022-08-11T02:04:08;6.80;;;3.70;;
56820;SDS011;42702;50.178;20.992;2022-08-11T02:07:34;6.70;;;3.90;;
56820;SDS011;42702;50.178;20.992;2022-08-11T02:10:20;7.10;;;4.00;;
56820;SDS011;42702;50.178;20.992;2022-08-11T02:13:36;6.90;;;3.60;;
56820;SDS011;42702;50.178;20.992;2022-08-11T02:19:07;5.00;;;3.60;;
56820;SDS011;42702;50.178;20.992;2022-08-11T02:25:07;5.10;;;4.00;;
56820;SDS011;42702;50.178;20.992;2022-08-11T02:27:47;5.20;;;3.60;;
56820;SDS011;42702;50.178;20.992;2022-08-11T02:30:23;5.60;;;3.50;;
56820;SDS011;42702;50.178;20.992;2022-08-11T02:47:01;9.60;;;4.00;;
56820;SDS011;42702;50.178;20.992;2022-08-11T02:52:35;6.10;;;3.50;;
56820;SDS011;42702;50.178;20.992;2022-08-11T02:55:21;6.30;;;3.80;;
56820;SDS011;42702;50.178;20.992;2022-08-11T02:59:04;6.80;;;3.60;;
56820;SDS011;42702;50.178;20.992;2022-08-11T03:01:40;5.20;;;3.40;;
56820;SDS011;42702;50.178;20.992;2022-08-11T03:04:28;9.30;;;4.30;;
56820;SDS011;42702;50.178;20.992;2022-08-11T03:07:22;5.70;;;3.80;;
56820;SDS011;42702;50.178;20.992;2022-08-11T03:10:03;6.40;;;4.00;;
56820;SDS011;42702;50.178;20.992;2022-08-11T03:16:06;8.20;;;3.60;;
56820;SDS011;42702;50.178;20.992;2022-08-11T03:27:36;8.60;;;4.20;;
56820;SDS011;42702;50.178;20.992;2022-08-11T03:30:40;5.40;;;3.60;;
56820;SDS011;42702;50.178;20.992;2022-08-11T03:33:48;8.30;;;4.00;;
56820;SDS011;42702;50.178;20.992;2022-08-11T03:40:06;8.70;;;4.30;;
56820;SDS011;42702;50.178;20.992;2022-08-11T03:42:52;13.00;;;4.40;;
56820;SDS011;42702;50.178;20.992;2022-08-11T03:45:32;7.60;;;4.90;;
56820;SDS011;42702;50.178;20.992;2022-08-11T03:48:21;12.00;;;6.40;;
56820;SDS011;42702;50.178;20.992;2022-08-11T03:51:14;8.50;;;6.00;;
56820;SDS011;42702;50.178;20.992;2022-08-11T03:54:27;10.10;;;5.90;;
56820;SDS011;42702;50.178;20.992;2022-08-11T04:20:41;8.40;;;5.30;;
56820;SDS011;42702;50.178;20.992;2022-08-11T04:23:39;12.40;;;5.40;;
56820;SDS011;42702;50.178;20.992;2022-08-11T04:30:16;9.90;;;4.70;;
56820;SDS011;42702;50.178;20.992;2022-08-11T04:35:56;8.40;;;4.80;;
56820;SDS011;42702;50.178;20.992;2022-08-11T04:57:15;11.40;;;5.40;;
56820;SDS011;42702;50.178;20.992;2022-08-11T05:00:09;11.40;;;5.40;;
56820;SDS011;42702;50.178;20.992;2022-08-11T05:03:20;8.40;;;4.70;;
56820;SDS011;42702;50.178;20.992;2022-08-11T05:08:50;9.00;;;4.70;;
56820;SDS011;42702;50.178;20.992;2022-08-11T05:11:33;16.80;;;5.00;;
56820;SDS011;42702;50.178;20.992;2022-08-11T05:17:10;9.50;;;4.30;;
56820;SDS011;42702;50.178;20.992;2022-08-11T05:20:00;10.00;;;5.00;;
56820;SDS011;42702;50.178;20.992;2022-08-11T05:22:47;9.40;;;4.80;;
56820;SDS011;42702;50.178;20.992;2022-08-11T05:25:37;7.00;;;4.40;;
56820;SDS011;42702;50.178;20.992;2022-08-11T05:28:55;7.30;;;4.50;;
56820;SDS011;42702;50.178;20.992;2022-08-11T05:31:49;7.90;;;4.20;;
56820;SDS011;42702;50.178;20.992;2022-08-11T05:34:43;9.50;;;4.30;;
56820;SDS011;42702;50.178;20.992;2022-08-11T05:37:24;6.90;;;3.50;;
56820;SDS011;42702;50.178;20.992;2022-08-11T05:40:07;9.30;;;3.80;;
56820;SDS011;42702;50.178;20.992;2022-08-11T05:43:01;7.90;;;3.70;;
56820;SDS011;42702;50.178;20.992;2022-08-11T05:45:58;6.80;;;3.60;;
56820;SDS011;42702;50.178;20.992;2022-08-11T05:48:48;8.30;;;3.40;;
56820;SDS011;42702;50.178;20.992;2022-08-11T05:51:40;9.30;;;3.60;;
56820;SDS011;42702;50.178;20.992;2022-08-11T05:54:39;9.20;;;3.80;;
56820;SDS011;42702;50.178;20.992;2022-08-11T05:57:35;4.70;;;3.50;;
56820;SDS011;42702;50.178;20.992;2022-08-11T06:00:18;5.20;;;3.10;;
56820;SDS011;42702;50.178;20.992;2022-08-11T06:02:48;7.20;;;3.50;;
56820;SDS011;42702;50.178;20.992;2022-08-11T06:05:32;7.50;;;3.60;;
56820;SDS011;42702;50.178;20.992;2022-08-11T06:08:11;5.10;;;3.20;;
56820;SDS011;42702;50.178;20.992;2022-08-11T06:10:41;5.40;;;3.10;;
56820;SDS011;42702;50.178;20.992;2022-08-11T06:13:15;8.20;;;3.40;;
56820;SDS011;42702;50.178;20.992;2022-08-11T06:15:46;6.10;;;3.50;;
56820;SDS011;42702;50.178;20.992;2022-08-11T06:18:18;7.50;;;3.30;;
56820;SDS011;42702;50.178;20.992;2022-08-11T06:20:49;5.70;;;3.80;;
56820;SDS011;42702;50.178;20.992;2022-08-11T06:23:22;6.20;;;3.70;;
56820;SDS011;42702;50.178;20.992;2022-08-11T06:25:52;5.70;;;3.70;;
56820;SDS011;42702;50.178;20.992;2022-08-11T06:28:33;5.50;;;3.50;;
56820;SDS011;42702;50.178;20.992;2022-08-11T06:31:11;5.70;;;3.00;;
56820;SDS011;42702;50.178;20.992;2022-08-11T06:41:35;6.50;;;3.00;;
56820;SDS011;42702;50.178;20.992;2022-08-11T06:48:00;6.60;;;3.30;;
56820;SDS011;42702;50.178;20.992;2022-08-11T06:50:29;7.50;;;3.30;;
56820;SDS011;42702;50.178;20.992;2022-08-11T06:53:18;6.70;;;3.60;;
56820;SDS011;42702;50.178;20.992;2022-08-11T06:55:47;5.10;;;3.10;;
56820;SDS011;42702;50.178;20.992;2022-08-11T06:58:36;6.00;;;3.20;;
56820;SDS011;42702;50.178;20.992;2022-08-11T07:01:31;5.20;;;3.30;;
56820;SDS011;42702;50.178;20.992;2022-08-11T07:13:17;5.90;;;3.10;;
56820;SDS011;42702;50.178;20.992;2022-08-11T07:16:13;3.50;;;2.30;;
56820;SDS011;42702;50.178;20.992;2022-08-11T07:18:54;5.80;;;3.00;;
56820;SDS011;42702;50.178;20.992;2022-08-11T07:21:47;4.80;;;2.60;;
56820;SDS011;42702;50.178;20.992;2022-08-11T07:24:41;4.70;;;2.70;;
56820;SDS011;42702;50.178;20.992;2022-08-11T07:27:35;7.20;;;2.90;;
56820;SDS011;42702;50.178;20.992;2022-08-11T07:30:36;8.90;;;2.80;;
56820;SDS011;42702;50.178;20.992;2022-08-11T07:33:08;5.80;;;2.50;;
56820;SDS011;42702;50.178;20.992;2022-08-11T07:35:59;7.90;;;2.50;;
56820;SDS011;42702;50.178;20.992;2022-08-11T07:38:34;4.30;;;2.40;;
56820;SDS011;42702;50.178;20.992;2022-08-11T07:41:14;4.10;;;2.30;;
56820;SDS011;42702;50.178;20.992;2022-08-11T07:43:48;4.20;;;2.80;;
56820;SDS011;42702;50.178;20.992;2022-08-11T07:46:21;3.90;;;2.50;;
56820;SDS011;42702;50.178;20.992;2022-08-11T07:49:09;5.50;;;2.40;;
56820;SDS011;42702;50.178;20.992;2022-08-11T07:51:56;4.60;;;2.30;;
56820;SDS011;42702;50.178;20.992;2022-08-11T07:54:44;3.40;;;2.40;;
56820;SDS011;42702;50.178;20.992;2022-08-11T07:57:17;4.70;;;3.20;;
56820;SDS011;42702;50.178;20.992;2022-08-11T08:00:25;3.80;;;1.90;;
56820;SDS011;42702;50.178;20.992;2022-08-11T08:03:18;3.50;;;2.10;;
56820;SDS011;42702;50.178;20.992;2022-08-11T08:06:21;2.90;;;2.20;;
56820;SDS011;42702;50.178;20.992;2022-08-11T08:09:09;2.70;;;2.20;;
56820;SDS011;42702;50.178;20.992;2022-08-11T08:11:58;3.00;;;2.20;;
56820;SDS011;42702;50.178;20.992;2022-08-11T08:14:50;3.00;;;1.90;;
56820;SDS011;42702;50.178;20.992;2022-08-11T08:17:41;2.90;;;2.10;;
56820;SDS011;42702;50.178;20.992;2022-08-11T08:20:47;4.50;;;2.10;;
56820;SDS011;42702;50.178;20.992;2022-08-11T08:23:17;4.40;;;2.30;;
56820;SDS011;42702;50.178;20.992;2022-08-11T08:26:01;3.10;;;2.30;;
56820;SDS011;42702;50.178;20.992;2022-08-11T08:28:43;2.80;;;1.90;;
56820;SDS011;42702;50.178;20.992;2022-08-11T08:31:13;3.80;;;1.80;;
56820;SDS011;42702;50.178;20.992;2022-08-11T08:33:42;5.20;;;1.90;;
56820;SDS011;42702;50.178;20.992;2022-08-11T08:36:11;3.70;;;2.00;;
56820;SDS011;42702;50.178;20.992;2022-08-11T08:38:49;6.10;;;2.30;;
56820;SDS011;42702;50.178;20.992;2022-08-11T08:41:25;3.20;;;1.90;;
56820;SDS011;42702;50.178;20.992;2022-08-11T08:43:57;1.70;;;1.60;;
56820;SDS011;42702;50.178;20.992;2022-08-11T08:46:57;1.90;;;1.70;;
56820;SDS011;42702;50.178;20.992;2022-08-11T08:49:30;1.90;;;1.70;;
56820;SDS011;42702;50.178;20.992;2022-08-11T08:52:07;2.00;;;1.80;;
56820;SDS011;42702;50.178;20.992;2022-08-11T08:55:01;3.20;;;1.60;;
56820;SDS011;42702;50.178;20.992;2022-08-11T08:57:35;3.90;;;1.80;;
56820;SDS011;42702;50.178;20.992;2022-08-11T09:00:07;2.30;;;1.50;;
56820;SDS011;42702;50.178;20.992;2022-08-11T09:02:41;5.20;;;1.90;;
56820;SDS011;42702;50.178;20.992;2022-08-11T09:05:10;2.60;;;1.50;;
56820;SDS011;42702;50.178;20.992;2022-08-11T09:07:39;2.20;;;1.60;;
56820;SDS011;42702;50.178;20.992;2022-08-11T09:10:09;2.10;;;1.40;;
56820;SDS011;42702;50.178;20.992;2022-08-11T09:12:38;4.60;;;1.60;;
56820;SDS011;42702;50.178;20.992;2022-08-11T09:15:10;3.60;;;1.80;;
56820;SDS011;42702;50.178;20.992;2022-08-11T09:20:19;3.80;;;1.50;;
56820;SDS011;42702;50.178;20.992;2022-08-11T09:26:05;3.50;;;1.30;;
56820;SDS011;42702;50.178;20.992;2022-08-11T09:28:58;4.10;;;1.60;;
56820;SDS011;42702;50.178;20.992;2022-08-11T09:31:30;2.20;;;1.40;;
56820;SDS011;42702;50.178;20.992;2022-08-11T09:34:09;2.50;;;1.60;;
56820;SDS011;42702;50.178;20.992;2022-08-11T09:36:40;3.30;;;1.60;;
56820;SDS011;42702;50.178;20.992;2022-08-11T09:39:31;4.00;;;1.50;;
56820;SDS011;42702;50.178;20.992;2022-08-11T09:42:23;3.60;;;1.60;;
56820;SDS011;42702;50.178;20.992;2022-08-11T09:45:12;3.10;;;1.40;;
56820;SDS011;42702;50.178;20.992;2022-08-11T09:47:42;3.00;;;1.40;;
56820;SDS011;42702;50.178;20.992;2022-08-11T09:50:11;1.30;;;1.20;;
56820;SDS011;42702;50.178;20.992;2022-08-11T09:52:43;2.80;;;1.50;;
56820;SDS011;42702;50.178;20.992;2022-08-11T09:55:33;2.10;;;1.50;;
56820;SDS011;42702;50.178;20.992;2022-08-11T09:58:03;3.20;;;1.40;;
56820;SDS011;42702;50.178;20.992;2022-08-11T10:01:02;1.80;;;1.40;;
56820;SDS011;42702;50.178;20.992;2022-08-11T10:03:32;1.30;;;1.20;;
56820;SDS011;42702;50.178;20.992;2022-08-11T10:06:07;1.70;;;1.60;;
56820;SDS011;42702;50.178;20.992;2022-08-11T10:09:00;2.80;;;1.30;;
56820;SDS011;42702;50.178;20.992;2022-08-11T10:11:31;3.10;;;1.50;;
56820;SDS011;42702;50.178;20.992;2022-08-11T10:14:04;3.90;;;1.30;;
56820;SDS011;42702;50.178;20.992;2022-08-11T10:17:02;2.00;;;1.50;;
56820;SDS011;42702;50.178;20.992;2022-08-11T10:19:35;3.10;;;1.30;;
56820;SDS011;42702;50.178;20.992;2022-08-11T10:22:05;2.00;;;1.30;;
56820;SDS011;42702;50.178;20.992;2022-08-11T10:24:55;1.20;;;1.10;;
56820;SDS011;42702;50.178;20.992;2022-08-11T10:27:46;3.30;;;1.60;;
56820;SDS011;42702;50.178;20.992;2022-08-11T10:30:44;1.60;;;1.30;;
56820;SDS011;42702;50.178;20.992;2022-08-11T10:33:33;3.50;;;1.30;;
56820;SDS011;42702;50.178;20.992;2022-08-11T10:36:26;2.20;;;1.40;;
56820;SDS011;42702;50.178;20.992;2022-08-11T10:38:57;1.40;;;1.30;;
56820;SDS011;42702;50.178;20.992;2022-08-11T10:41:27;2.00;;;1.30;;
56820;SDS011;42702;50.178;20.992;2022-08-11T10:44:43;1.90;;;1.30;;
56820;SDS011;42702;50.178;20.992;2022-08-11T10:47:14;4.40;;;2.20;;
56820;SDS011;42702;50.178;20.992;2022-08-11T10:50:02;9.00;;;2.10;;
56820;SDS011;42702;50.178;20.992;2022-08-11T10:52:58;7.90;;;1.50;;
56820;SDS011;42702;50.178;20.992;2022-08-11T10:55:46;3.20;;;1.60;;
56820;SDS011;42702;50.178;20.992;2022-08-11T10:58:35;7.20;;;1.80;;
56820;SDS011;42702;50.178;20.992;2022-08-11T11:03:50;4.20;;;1.40;;
56820;SDS011;42702;50.178;20.992;2022-08-11T11:06:22;5.20;;;1.90;;
56820;SDS011;42702;50.178;20.992;2022-08-11T11:09:01;4.30;;;1.80;;
56820;SDS011;42702;50.178;20.992;2022-08-11T11:11:33;7.50;;;2.40;;
56820;SDS011;42702;50.178;20.992;2022-08-11T11:14:27;6.30;;;2.10;;
56820;SDS011;42702;50.178;20.992;2022-08-11T11:17:26;4.20;;;1.70;;
56820;SDS011;42702;50.178;20.992;2022-08-11T11:20:37;2.80;;;1.70;;
56820;SDS011;42702;50.178;20.992;2022-08-11T11:23:19;6.40;;;1.90;;
56820;SDS011;42702;50.178;20.992;2022-08-11T11:29:15;5.40;;;2.20;;
56820;SDS011;42702;50.178;20.992;2022-08-11T11:37:50;3.20;;;1.30;;
56820;SDS011;42702;50.178;20.992;2022-08-11T11:43:00;2.10;;;1.30;;
56820;SDS011;42702;50.178;20.992;2022-08-11T11:45:29;3.10;;;1.60;;
56820;SDS011;42702;50.178;20.992;2022-08-11T11:47:59;3.20;;;1.50;;
56820;SDS011;42702;50.178;20.992;2022-08-11T11:50:32;1.30;;;1.10;;
56820;SDS011;42702;50.178;20.992;2022-08-11T11:53:05;1.70;;;1.40;;
56820;SDS011;42702;50.178;20.992;2022-08-11T11:55:36;3.10;;;1.30;;
56820;SDS011;42702;50.178;20.992;2022-08-11T11:58:05;2.40;;;1.30;;
56820;SDS011;42702;50.178;20.992;2022-08-11T12:00:54;2.70;;;1.20;;
56820;SDS011;42702;50.178;20.992;2022-08-11T12:03:46;3.40;;;1.10;;
56820;SDS011;42702;50.178;20.992;2022-08-11T12:06:20;2.10;;;1.30;;
56820;SDS011;42702;50.178;20.992;2022-08-11T12:08:54;1.80;;;1.30;;
56820;SDS011;42702;50.178;20.992;2022-08-11T12:11:25;1.10;;;1.00;;
56820;SDS011;42702;50.178;20.992;2022-08-11T12:14:14;1.80;;;1.20;;
56820;SDS011;42702;50.178;20.992;2022-08-11T12:16:46;2.00;;;1.30;;
56820;SDS011;42702;50.178;20.992;2022-08-11T12:19:16;2.20;;;1.30;;
56820;SDS011;42702;50.178;20.992;2022-08-11T12:21:48;4.40;;;1.10;;
56820;SDS011;42702;50.178;20.992;2022-08-11T12:24:37;1.00;;;0.90;;
56820;SDS011;42702;50.178;20.992;2022-08-11T12:27:25;2.20;;;1.30;;
56820;SDS011;42702;50.178;20.992;2022-08-11T12:29:58;1.40;;;1.20;;
56820;SDS011;42702;50.178;20.992;2022-08-11T12:32:33;2.10;;;1.00;;
56820;SDS011;42702;50.178;20.992;2022-08-11T12:35:04;2.40;;;1.00;;
56820;SDS011;42702;50.178;20.992;2022-08-11T12:37:38;2.10;;;1.40;;
56820;SDS011;42702;50.178;20.992;2022-08-11T12:40:13;1.20;;;1.10;;
56820;SDS011;42702;50.178;20.992;2022-08-11T12:43:23;2.90;;;1.50;;
56820;SDS011;42702;50.178;20.992;2022-08-11T12:46:30;1.60;;;1.50;;
56820;SDS011;42702;50.178;20.992;2022-08-11T12:49:14;1.60;;;1.40;;
56820;SDS011;42702;50.178;20.992;2022-08-11T12:52:13;2.30;;;1.40;;
56820;SDS011;42702;50.178;20.992;2022-08-11T12:57:30;2.90;;;1.50;;
56820;SDS011;42702;50.178;20.992;2022-08-11T13:00:21;1.70;;;1.60;;
56820;SDS011;42702;50.178;20.992;2022-08-11T13:03:10;2.60;;;1.70;;
56820;SDS011;42702;50.178;20.992;2022-08-11T13:05:59;2.00;;;1.80;;
56820;SDS011;42702;50.178;20.992;2022-08-11T13:08:35;3.40;;;1.80;;
56820;SDS011;42702;50.178;20.992;2022-08-11T13:11:06;2.20;;;1.60;;
56820;SDS011;42702;50.178;20.992;2022-08-11T13:14:15;1.40;;;1.30;;
56820;SDS011;42702;50.178;20.992;2022-08-11T13:16:44;2.60;;;1.70;;
56820;SDS011;42702;50.178;20.992;2022-08-11T13:19:32;3.30;;;1.80;;
56820;SDS011;42702;50.178;20.992;2022-08-11T13:22:01;3.20;;;1.90;;
56820;SDS011;42702;50.178;20.992;2022-08-11T13:24:31;2.10;;;1.90;;
56820;SDS011;42702;50.178;20.992;2022-08-11T13:27:01;3.50;;;1.90;;
56820;SDS011;42702;50.178;20.992;2022-08-11T13:29:30;1.80;;;1.70;;
56820;SDS011;42702;50.178;20.992;2022-08-11T13:31:58;2.00;;;1.80;;
56820;SDS011;42702;50.178;20.992;2022-08-11T13:34:27;3.10;;;1.80;;
56820;SDS011;42702;50.178;20.992;2022-08-11T13:36:58;1.90;;;1.80;;
56820;SDS011;42702;50.178;20.992;2022-08-11T13:39:32;4.80;;;2.20;;
56820;SDS011;42702;50.178;20.992;2022-08-11T13:42:03;3.50;;;1.90;;
56820;SDS011;42702;50.178;20.992;2022-08-11T13:44:33;2.90;;;1.90;;
56820;SDS011;42702;50.178;20.992;2022-08-11T13:47:05;2.10;;;1.90;;
56820;SDS011;42702;50.178;20.992;2022-08-11T13:49:36;2.00;;;1.90;;
56820;SDS011;42702;50.178;20.992;2022-08-11T13:52:14;2.40;;;2.00;;
56820;SDS011;42702;50.178;20.992;2022-08-11T13:54:44;4.80;;;1.80;;
56820;SDS011;42702;50.178;20.992;2022-08-11T13:57:15;2.20;;;1.70;;
56820;SDS011;42702;50.178;20.992;2022-08-11T14:00:07;3.60;;;1.60;;
56820;SDS011;42702;50.178;20.992;2022-08-11T14:02:54;2.80;;;2.00;;
56820;SDS011;42702;50.178;20.992;2022-08-11T14:05:26;2.20;;;2.00;;
56820;SDS011;42702;50.178;20.992;2022-08-11T14:08:00;3.50;;;1.80;;
56820;SDS011;42702;50.178;20.992;2022-08-11T14:10:31;1.90;;;1.80;;
56820;SDS011;42702;50.178;20.992;2022-08-11T14:13:09;2.70;;;1.80;;
56820;SDS011;42702;50.178;20.992;2022-08-11T14:16:16;1.80;;;1.60;;
56820;SDS011;42702;50.178;20.992;2022-08-11T14:18:49;2.20;;;2.00;;
56820;SDS011;42702;50.178;20.992;2022-08-11T14:21:23;2.50;;;1.70;;
56820;SDS011;42702;50.178;20.992;2022-08-11T14:24:11;2.20;;;2.00;;
56820;SDS011;42702;50.178;20.992;2022-08-11T14:26:46;1.90;;;1.80;;
56820;SDS011;42702;50.178;20.992;2022-08-11T14:29:16;3.50;;;1.70;;
56820;SDS011;42702;50.178;20.992;2022-08-11T14:31:52;2.90;;;1.80;;
56820;SDS011;42702;50.178;20.992;2022-08-11T14:34:21;3.30;;;1.70;;
56820;SDS011;42702;50.178;20.992;2022-08-11T14:36:56;4.30;;;2.10;;
56820;SDS011;42702;50.178;20.992;2022-08-11T14:39:28;3.00;;;2.10;;
56820;SDS011;42702;50.178;20.992;2022-08-11T14:42:06;3.10;;;2.10;;
56820;SDS011;42702;50.178;20.992;2022-08-11T14:44:55;2.50;;;2.30;;
56820;SDS011;42702;50.178;20.992;2022-08-11T14:47:46;2.50;;;2.30;;
56820;SDS011;42702;50.178;20.992;2022-08-11T14:50:19;3.70;;;2.80;;
56820;SDS011;42702;50.178;20.992;2022-08-11T14:52:51;4.30;;;2.50;;
56820;SDS011;42702;50.178;20.992;2022-08-11T14:55:34;2.90;;;2.60;;
56820;SDS011;42702;50.178;20.992;2022-08-11T14:58:42;3.60;;;2.40;;
56820;SDS011;42702;50.178;20.992;2022-08-11T15:01:11;3.00;;;2.70;;
56820;SDS011;42702;50.178;20.992;2022-08-11T15:03:58;3.70;;;2.60;;
56820;SDS011;42702;50.178;20.992;2022-08-11T15:06:46;4.60;;;2.90;;
56820;SDS011;42702;50.178;20.992;2022-08-11T15:09:15;3.30;;;2.50;;
56820;SDS011;42702;50.178;20.992;2022-08-11T15:11:44;3.20;;;2.60;;
56820;SDS011;42702;50.178;20.992;2022-08-11T15:14:51;2.50;;;2.20;;
56820;SDS011;42702;50.178;20.992;2022-08-11T15:17:40;3.50;;;2.60;;
56820;SDS011;42702;50.178;20.992;2022-08-11T15:20:12;2.70;;;2.50;;
56820;SDS011;42702;50.178;20.992;2022-08-11T15:23:02;3.70;;;2.30;;
56820;SDS011;42702;50.178;20.992;2022-08-11T15:25:52;2.50;;;2.30;;
56820;SDS011;42702;50.178;20.992;2022-08-11T15:28:24;2.60;;;2.20;;
56820;SDS011;42702;50.178;20.992;2022-08-11T15:31:13;2.50;;;2.30;;
56820;SDS011;42702;50.178;20.992;2022-08-11T15:33:50;2.70;;;2.30;;
56820;SDS011;42702;50.178;20.992;2022-08-11T15:36:44;3.60;;;2.10;;
56820;SDS011;42702;50.178;20.992;2022-08-11T15:39:37;3.70;;;2.40;;
56820;SDS011;42702;50.178;20.992;2022-08-11T15:42:33;3.50;;;2.60;;
56820;SDS011;42702;50.178;20.992;2022-08-11T15:45:25;2.60;;;2.30;;
56820;SDS011;42702;50.178;20.992;2022-08-11T15:49:03;2.40;;;2.20;;
56820;SDS011;42702;50.178;20.992;2022-08-11T15:51:34;4.30;;;2.30;;
56820;SDS011;42702;50.178;20.992;2022-08-11T15:54:13;2.10;;;1.90;;
56820;SDS011;42702;50.178;20.992;2022-08-11T15:56:45;3.50;;;2.20;;
56820;SDS011;42702;50.178;20.992;2022-08-11T15:59:17;2.80;;;2.30;;
56820;SDS011;42702;50.178;20.992;2022-08-11T16:02:11;5.70;;;2.60;;
56820;SDS011;42702;50.178;20.992;2022-08-11T16:05:01;2.50;;;2.30;;
56820;SDS011;42702;50.178;20.992;2022-08-11T16:07:34;5.10;;;2.50;;
56820;SDS011;42702;50.178;20.992;2022-08-11T16:10:08;2.70;;;2.30;;
56820;SDS011;42702;50.178;20.992;2022-08-11T16:15:49;5.90;;;2.10;;
56820;SDS011;42702;50.178;20.992;2022-08-11T16:18:55;4.50;;;2.00;;
56820;SDS011;42702;50.178;20.992;2022-08-11T16:21:26;1.80;;;1.70;;
56820;SDS011;42702;50.178;20.992;2022-08-11T16:24:05;3.70;;;2.20;;
56820;SDS011;42702;50.178;20.992;2022-08-11T16:26:56;4.10;;;1.90;;
56820;SDS011;42702;50.178;20.992;2022-08-11T16:29:42;3.20;;;1.80;;
56820;SDS011;42702;50.178;20.992;2022-08-11T16:32:15;2.70;;;1.80;;
56820;SDS011;42702;50.178;20.992;2022-08-11T16:34:55;2.80;;;1.90;;
56820;SDS011;42702;50.178;20.992;2022-08-11T16:37:46;6.30;;;2.10;;
56820;SDS011;42702;50.178;20.992;2022-08-11T16:40:34;7.50;;;2.10;;
56820;SDS011;42702;50.178;20.992;2022-08-11T16:43:02;3.40;;;2.00;;
56820;SDS011;42702;50.178;20.992;2022-08-11T16:45:53;2.60;;;2.10;;
56820;SDS011;42702;50.178;20.992;2022-08-11T16:48:42;3.60;;;2.10;;
56820;SDS011;42702;50.178;20.992;2022-08-11T16:51:14;5.60;;;2.20;;
56820;SDS011;42702;50.178;20.992;2022-08-11T16:53:47;2.00;;;1.70;;
56820;SDS011;42702;50.178;20.992;2022-08-11T16:59:16;4.60;;;3.10;;
56820;SDS011;42702;50.178;20.992;2022-08-11T17:01:50;9.40;;;4.00;;
56820;SDS011;42702;50.178;20.992;2022-08-11T17:04:26;7.10;;;3.10;;
56820;SDS011;42702;50.178;20.992;2022-08-11T17:07:17;3.50;;;2.60;;
56820;SDS011;42702;50.178;20.992;2022-08-11T17:10:14;4.70;;;2.50;;
56820;SDS011;42702;50.178;20.992;2022-08-11T17:13:21;8.10;;;3.50;;
56820;SDS011;42702;50.178;20.992;2022-08-11T17:15:55;8.00;;;3.20;;
56820;SDS011;42702;50.178;20.992;2022-08-11T17:18:35;3.70;;;2.60;;
56820;SDS011;42702;50.178;20.992;2022-08-11T17:21:11;3.80;;;2.70;;
56820;SDS011;42702;50.178;20.992;2022-08-11T17:23:54;4.20;;;2.90;;
56820;SDS011;42702;50.178;20.992;2022-08-11T17:29:19;5.20;;;2.10;;
56820;SDS011;42702;50.178;20.992;2022-08-11T17:31:51;5.20;;;2.80;;
56820;SDS011;42702;50.178;20.992;2022-08-11T17:34:42;4.70;;;2.50;;
56820;SDS011;42702;50.178;20.992;2022-08-11T17:37:33;3.20;;;2.50;;
56820;SDS011;42702;50.178;20.992;2022-08-11T17:40:06;3.40;;;2.40;;
56820;SDS011;42702;50.178;20.992;2022-08-11T17:42:37;2.90;;;2.60;;
56820;SDS011;42702;50.178;20.992;2022-08-11T17:45:27;5.00;;;2.50;;
56820;SDS011;42702;50.178;20.992;2022-08-11T17:48:36;6.60;;;2.50;;
56820;SDS011;42702;50.178;20.992;2022-08-11T17:51:16;4.10;;;2.50;;
56820;SDS011;42702;50.178;20.992;2022-08-11T17:54:05;3.90;;;2.30;;
56820;SDS011;42702;50.178;20.992;2022-08-11T17:56:54;6.50;;;2.70;;
56820;SDS011;42702;50.178;20.992;2022-08-11T17:59:48;6.20;;;2.70;;
56820;SDS011;42702;50.178;20.992;2022-08-11T18:02:28;3.40;;;2.80;;
56820;SDS011;42702;50.178;20.992;2022-08-11T18:05:22;4.10;;;2.60;;
56820;SDS011;42702;50.178;20.992;2022-08-11T18:07:53;4.80;;;2.60;;
56820;SDS011;42702;50.178;20.992;2022-08-11T18:10:44;4.10;;;3.40;;
56820;SDS011;42702;50.178;20.992;2022-08-11T18:13:34;4.20;;;3.30;;
56820;SDS011;42702;50.178;20.992;2022-08-11T18:16:33;7.10;;;4.10;;
56820;SDS011;42702;50.178;20.992;2022-08-11T18:19:33;5.90;;;4.40;;
56820;SDS011;42702;50.178;20.992;2022-08-11T18:22:30;6.10;;;4.30;;
56820;SDS011;42702;50.178;20.992;2022-08-11T18:25:25;6.40;;;4.20;;
56820;SDS011;42702;50.178;20.992;2022-08-11T18:28:20;5.40;;;4.20;;
56820;SDS011;42702;50.178;20.992;2022-08-11T18:31:10;6.40;;;4.80;;
56820;SDS011;42702;50.178;20.992;2022-08-11T18:34:01;6.60;;;5.10;;
56820;SDS011;42702;50.178;20.992;2022-08-11T18:36:56;9.30;;;5.60;;
56820;SDS011;42702;50.178;20.992;2022-08-11T18:40:04;12.50;;;6.70;;
56820;SDS011;42702;50.178;20.992;2022-08-11T18:42:56;12.90;;;6.00;;
56820;SDS011;42702;50.178;20.992;2022-08-11T18:45:48;11.00;;;5.70;;
56820;SDS011;42702;50.178;20.992;2022-08-11T18:48:45;14.80;;;6.90;;
56820;SDS011;42702;50.178;20.992;2022-08-11T18:51:46;58.00;;;27.50;;
56820;SDS011;42702;50.178;20.992;2022-08-11T18:54:36;180.60;;;82.10;;
56820;SDS011;42702;50.178;20.992;2022-08-11T18:57:25;206.90;;;86.30;;
56820;SDS011;42702;50.178;20.992;2022-08-11T19:00:23;185.70;;;78.10;;
56820;SDS011;42702;50.178;20.992;2022-08-11T19:03:13;97.50;;;44.20;;
56820;SDS011;42702;50.178;20.992;2022-08-11T19:06:17;92.70;;;44.10;;
56820;SDS011;42702;50.178;20.992;2022-08-11T19:09:09;106.50;;;59.30;;
56820;SDS011;42702;50.178;20.992;2022-08-11T19:14:47;46.40;;;26.50;;
56820;SDS011;42702;50.178;20.992;2022-08-11T19:17:40;34.10;;;16.90;;
56820;SDS011;42702;50.178;20.992;2022-08-11T19:20:30;14.10;;;9.00;;
56820;SDS011;42702;50.178;20.992;2022-08-11T19:23:20;15.60;;;9.80;;
56820;SDS011;42702;50.178;20.992;2022-08-11T19:26:15;8.00;;;6.10;;
56820;SDS011;42702;50.178;20.992;2022-08-11T19:29:03;11.00;;;6.30;;
56820;SDS011;42702;50.178;20.992;2022-08-11T19:32:12;8.00;;;6.30;;
56820;SDS011;42702;50.178;20.992;2022-08-11T19:35:00;25.40;;;15.90;;
56820;SDS011;42702;50.178;20.992;2022-08-11T19:37:49;23.70;;;15.50;;
56820;SDS011;42702;50.178;20.992;2022-08-11T19:40:37;11.50;;;8.90;;
56820;SDS011;42702;50.178;20.992;2022-08-11T19:43:25;10.20;;;7.10;;
56820;SDS011;42702;50.178;20.992;2022-08-11T19:46:14;12.90;;;7.40;;
56820;SDS011;42702;50.178;20.992;2022-08-11T19:49:05;13.80;;;8.80;;
56820;SDS011;42702;50.178;20.992;2022-08-11T19:51:54;14.40;;;9.90;;
56820;SDS011;42702;50.178;20.992;2022-08-11T19:54:42;12.60;;;9.10;;